Time;durP1;ratioP1;P1;durP2;ratioP2;P2;SDS_P1;SDS_P2;PMS_P1;PMS_P2;Temp;Humidity;BMP_temperature;BMP_pressure;BME280_temperature;BME280_humidity;BME280_pressure;Samples;Min_cycle;Max_cycle;Signal;HPM_P1;HPM_P2
2023/11/25 00:02:57;;;;;;;1999.90;999.90;;;;;;;9.01;65.45;101066.28;10375797;28;20400;-67
2023/11/25 00:08:00;;;;;;;1999.90;999.90;;;;;;;9.52;65.06;101076.09;10375578;28;20050;-67
2023/11/25 00:13:03;;;;;;;1999.90;999.90;;;;;;;8.84;65.59;101089.69;10374467;28;20079;-67
2023/11/25 00:18:06;;;;;;;1999.90;999.90;;;;;;;9.09;66.86;101087.66;10375231;28;20085;-67
2023/11/25 00:23:09;;;;;;;1999.90;999.90;;;;;;;9.37;66.48;101083.75;10374332;28;20053;-67
2023/11/25 00:28:11;;;;;;;1999.90;999.90;;;;;;;8.95;69.36;101082.22;10357614;28;20053;-67
2023/11/25 00:33:13;;;;;;;1999.90;999.90;;;;;;;9.58;67.20;101076.63;10374773;28;20499;-67
2023/11/25 00:38:16;;;;;;;1999.90;999.90;;;;;;;9.56;68.02;101090.69;10373651;28;20046;-67
2023/11/25 00:43:18;;;;;;;1999.90;999.90;;;;;;;9.14;67.15;101082.19;10374481;28;20513;-67
2023/11/25 00:48:21;;;;;;;1999.90;999.90;;;;;;;9.36;68.04;101089.03;10372580;28;20050;-67
2023/11/25 00:53:23;;;;;;;1999.90;999.90;;;;;;;9.70;67.62;101085.66;10374396;28;20046;-67
2023/11/25 00:58:26;;;;;;;1999.90;999.90;;;;;;;9.89;66.73;101079.50;10373120;28;20054;-67
2023/11/25 01:03:29;;;;;;;1999.90;999.90;;;;;;;9.56;67.94;101093.31;10374452;28;20057;-67
2023/11/25 01:08:32;;;;;;;1999.90;999.90;;;;;;;10.09;66.92;101099.44;10356467;28;20054;-67
2023/11/25 01:13:35;;;;;;;1999.90;999.90;;;;;;;9.94;65.62;101098.44;10374166;28;20128;-67
2023/11/25 01:18:37;;;;;;;1999.90;999.90;;;;;;;9.49;66.94;101105.81;10373799;28;20481;-67
2023/11/25 01:23:40;;;;;;;1999.90;999.90;;;;;;;9.97;66.28;101108.72;10373892;28;20054;-67
2023/11/25 01:28:42;;;;;;;1999.90;999.90;;;;;;;9.45;67.85;101107.75;10372440;28;20483;-67
2023/11/25 01:33:44;;;;;;;1999.90;999.90;;;;;;;9.89;67.58;101109.13;10373650;28;20072;-67
2023/11/25 01:38:47;;;;;;;1999.90;999.90;;;;;;;9.72;68.11;101114.34;10373503;28;20049;-67
2023/11/25 01:43:50;;;;;;;1999.90;999.90;;;;;;;9.58;67.99;101113.25;10372309;28;20054;-67
2023/11/25 01:48:52;;;;;;;1999.90;999.90;;;;;;;9.59;68.25;101119.31;10373344;28;20050;-67
2023/11/25 01:53:55;;;;;;;1999.90;999.90;;;;;;;9.59;69.03;101127.16;10373144;28;20413;-67
2023/11/25 01:58:59;;;;;;;1999.90;999.90;;;;;;;9.49;68.54;101114.50;10374530;28;20046;-67
2023/11/25 02:04:02;;;;;;;1999.90;999.90;;;;;;;9.67;68.08;101125.00;10379167;28;20432;-67
2023/11/25 02:09:04;;;;;;;1999.90;999.90;;;;;;;9.70;68.11;101121.38;10380044;28;20042;-67
2023/11/25 02:14:07;;;;;;;1999.90;999.90;;;;;;;10.01;67.31;101131.19;10380192;28;20057;-67
2023/11/25 02:19:11;;;;;;;1999.90;999.90;;;;;;;9.94;67.09;101127.19;10379918;28;20056;-67
2023/11/25 02:24:14;;;;;;;1999.90;999.90;;;;;;;10.04;67.67;101126.66;10379599;28;20108;-67
2023/11/25 02:29:16;;;;;;;1999.90;999.90;;;;;;;10.38;66.57;101124.97;10379436;28;20060;-67
2023/11/25 02:34:20;;;;;;;1999.90;999.90;;;;;;;9.75;67.73;101133.34;10379166;28;20075;-67
2023/11/25 02:39:23;;;;;;;1999.90;999.90;;;;;;;10.22;66.28;101134.50;10377989;28;20058;-67
2023/11/25 02:44:27;;;;;;;1999.90;999.90;;;;;;;10.39;65.10;101136.31;10378873;28;20045;-67
2023/11/25 02:49:29;;;;;;;1999.90;999.90;;;;;;;10.44;65.24;101133.44;10378737;28;20050;-67
2023/11/25 02:54:32;;;;;;;1999.90;999.90;;;;;;;10.44;64.85;101126.44;10378793;28;20054;-67
2023/11/25 02:59:36;;;;;;;1999.90;999.90;;;;;;;10.53;65.20;101119.88;10378487;28;20046;-67
2023/11/25 03:04:45;;;;;;;1999.90;999.90;;;;;;;11.18;62.21;101113.81;10377994;28;20120;-67
2023/11/25 03:09:48;;;;;;;1999.90;999.90;;;;;;;10.91;62.91;101110.00;10376955;28;20093;-67
2023/11/25 03:14:50;;;;;;;1999.90;999.90;;;;;;;10.41;63.70;101110.91;10377824;28;20046;-67
2023/11/25 03:19:53;;;;;;;1999.90;999.90;;;;;;;10.32;64.66;101108.75;10377412;28;20049;-67
2023/11/25 03:24:55;;;;;;;1999.90;999.90;;;;;;;9.88;64.79;101111.81;10377695;28;20060;-68
2023/11/25 03:29:58;;;;;;;1999.90;999.90;;;;;;;10.09;64.58;101109.91;10377159;28;20506;-67
2023/11/25 03:35:00;;;;;;;1999.90;999.90;;;;;;;9.84;66.07;101117.19;10377114;28;20046;-67
2023/11/25 03:40:07;;;;;;;1999.90;999.90;;;;;;;10.17;65.44;101112.94;10376653;28;20477;-67
2023/11/25 03:45:14;;;;;;;1999.90;999.90;;;;;;;10.28;64.67;101115.88;10375384;28;20054;-67
2023/11/25 03:50:16;;;;;;;1999.90;999.90;;;;;;;10.11;65.23;101111.50;10375389;28;20130;-67
2023/11/25 03:55:19;;;;;;;1999.90;999.90;;;;;;;9.89;66.15;101105.66;10374952;28;20054;-67
2023/11/25 04:00:22;;;;;;;1999.90;999.90;;;;;;;9.85;65.63;101112.78;10375070;28;20052;-67
2023/11/25 04:05:25;;;;;;;1999.90;999.90;;;;;;;9.39;64.78;101105.41;10374559;28;20133;-67
2023/11/25 04:10:27;;;;;;;1999.90;999.90;;;;;;;9.84;65.18;101118.97;10375770;28;20046;-67
2023/11/25 04:15:30;;;;;;;1999.90;999.90;;;;;;;9.63;65.85;101110.38;10375566;28;20112;-67
2023/11/25 04:20:33;;;;;;;1999.90;999.90;;;;;;;9.39;67.03;101115.88;10375458;28;20124;-67
2023/11/25 04:25:36;;;;;;;1999.90;999.90;;;;;;;9.20;66.35;101117.66;10375291;28;20045;-67
2023/11/25 04:30:40;;;;;;;1999.90;999.90;;;;;;;9.69;66.50;101114.47;10374946;28;20046;-67
2023/11/25 04:35:42;;;;;;;1999.90;999.90;;;;;;;9.80;66.31;101125.25;10374723;28;20060;-67
2023/11/25 04:40:45;;;;;;;1999.90;999.90;;;;;;;10.08;64.88;101139.59;10374606;28;20073;-67
2023/11/25 04:45:48;;;;;;;1999.90;999.90;;;;;;;10.54;64.14;101143.38;10374524;28;20056;-67
2023/11/25 04:50:50;;;;;;;1999.90;999.90;;;;;;;10.65;62.86;101140.19;10373428;28;20054;-67
2023/11/25 04:55:53;;;;;;;1999.90;999.90;;;;;;;10.25;64.55;101139.59;10374236;28;20054;-67
2023/11/25 05:00:57;;;;;;;1999.90;999.90;;;;;;;9.89;65.33;101139.66;10374489;28;20108;-67
2023/11/25 05:06:02;;;;;;;1999.90;999.90;;;;;;;9.53;65.95;101137.88;10374214;28;20049;-67
2023/11/25 05:11:05;;;;;;;1999.90;999.90;;;;;;;10.41;64.47;101129.22;10374438;28;20408;-67
2023/11/25 05:16:08;;;;;;;1999.90;999.90;;;;;;;9.99;65.11;101109.50;10374510;28;20129;-67
2023/11/25 05:21:10;;;;;;;1999.90;999.90;;;;;;;9.70;65.86;101113.53;10372895;28;20057;-67
2023/11/25 05:26:13;;;;;;;1999.90;999.90;;;;;;;9.96;65.77;101104.44;10373933;28;20056;-67
2023/11/25 05:31:15;;;;;;;1999.90;999.90;;;;;;;10.04;65.50;101100.50;10372390;28;20065;-67
2023/11/25 05:36:18;;;;;;;1999.90;999.90;;;;;;;10.55;63.84;101099.72;10379788;28;20507;-67
2023/11/25 05:41:22;;;;;;;1999.90;999.90;;;;;;;10.35;65.09;101096.34;10381330;28;20050;-67
2023/11/25 05:46:24;;;;;;;1999.90;999.90;;;;;;;10.46;63.95;101097.59;10379940;28;20057;-67
2023/11/25 05:51:35;;;;;;;1999.90;999.90;;;;;;;10.54;64.66;101087.53;10381067;28;20049;-67
2023/11/25 05:56:40;;;;;;;1999.90;999.90;;;;;;;10.62;64.41;101092.38;10379704;28;20056;-69
2023/11/25 06:01:43;;;;;;;1999.90;999.90;;;;;;;9.67;66.97;101093.63;10379389;28;20572;-68
2023/11/25 06:06:45;;;;;;;1999.90;999.90;;;;;;;9.82;67.11;101084.19;10379639;28;20060;-67
2023/11/25 06:11:51;;;;;;;1999.90;999.90;;;;;;;9.72;66.68;101082.97;10380268;28;20052;-68
2023/11/25 06:16:56;;;;;;;1999.90;999.90;;;;;;;9.69;67.31;101078.72;10379936;28;20057;-68
2023/11/25 06:22:00;;;;;;;1999.90;999.90;;;;;;;10.08;67.16;101075.03;10379870;28;20057;-68
2023/11/25 06:27:03;;;;;;;1999.90;999.90;;;;;;;10.51;64.45;101070.22;10380524;28;20077;-68
2023/11/25 06:32:06;;;;;;;1999.90;999.90;;;;;;;10.04;65.83;101068.28;10379491;28;20056;-68
2023/11/25 06:37:08;;;;;;;1999.90;999.90;;;;;;;9.03;67.97;101060.97;10379483;28;20050;-70
2023/11/25 06:42:12;;;;;;;1999.90;999.90;;;;;;;9.78;67.44;101066.94;10377780;28;20400;-72
2023/11/25 06:47:14;;;;;;;1999.90;999.90;;;;;;;9.99;67.21;101060.66;10376853;28;20112;-68
2023/11/25 06:52:17;;;;;;;1999.90;999.90;;;;;;;9.25;68.68;101072.09;10378508;28;20401;-67
2023/11/25 06:57:20;;;;;;;1999.90;999.90;;;;;;;9.32;68.67;101066.59;10378597;28;20061;-67
2023/11/25 07:02:22;;;;;;;1999.90;999.90;;;;;;;9.73;68.99;101061.09;10377202;28;20050;-67
2023/11/25 07:07:25;;;;;;;1999.90;999.90;;;;;;;9.97;68.86;101057.28;10378016;28;20089;-67
2023/11/25 07:12:29;;;;;;;1999.90;999.90;;;;;;;9.78;68.53;101072.19;10377932;28;20046;-66
2023/11/25 07:17:31;;;;;;;1999.90;999.90;;;;;;;9.73;68.64;101082.84;10377609;28;20053;-66
2023/11/25 07:22:33;;;;;;;1999.90;999.90;;;;;;;9.40;69.57;101077.53;10377598;28;20050;-67
2023/11/25 07:27:38;;;;;;;1999.90;999.90;;;;;;;9.76;68.95;101080.09;10359916;28;20054;-66
2023/11/25 07:32:40;;;;;;;1999.90;999.90;;;;;;;10.47;68.49;101065.22;10376834;28;20405;-67
2023/11/25 07:37:43;;;;;;;1999.90;999.90;;;;;;;10.21;67.43;101070.84;10376732;28;20054;-67
2023/11/25 07:42:48;;;;;;;1999.90;999.90;;;;;;;9.97;69.61;101064.25;10376677;28;20058;-67
2023/11/25 07:47:52;;;;;;;1999.90;999.90;;;;;;;9.61;70.83;101071.25;10375314;28;20046;-67
2023/11/25 07:52:55;;;;;;;1999.90;999.90;;;;;;;9.86;69.91;101052.56;10375061;28;20444;-67
2023/11/25 07:57:58;;;;;;;1999.90;999.90;;;;;;;9.30;70.96;101048.38;10375966;28;20046;-67
2023/11/25 08:03:02;;;;;;;1999.90;999.90;;;;;;;9.96;70.01;101054.72;10375973;28;20056;-67
2023/11/25 08:08:05;;;;;;;1999.90;999.90;;;;;;;10.24;69.87;101054.16;10375628;28;20080;-67
2023/11/25 08:13:07;;;;;;;1999.90;999.90;;;;;;;10.36;67.87;101056.16;10375879;28;20077;-67
2023/11/25 08:18:10;;;;;;;1999.90;999.90;;;;;;;9.88;68.91;101067.34;10374162;28;20378;-67
2023/11/25 08:23:12;;;;;;;1999.90;999.90;;;;;;;10.01;69.34;101058.78;10375562;28;20108;-67
2023/11/25 08:28:14;;;;;;;1999.90;999.90;;;;;;;9.67;68.93;101062.28;10374942;28;20046;-67
2023/11/25 08:33:17;;;;;;;1999.90;999.90;;;;;;;10.97;67.01;101062.50;10375309;28;20539;-67
2023/11/25 08:38:20;;;;;;;1999.90;999.90;;;;;;;11.18;65.46;101070.13;10373767;28;20108;-67
2023/11/25 08:43:22;;;;;;;1999.90;999.90;;;;;;;10.75;67.02;101072.47;10374740;28;20050;-67
2023/11/25 08:48:24;;;;;;;1999.90;999.90;;;;;;;10.35;67.61;101066.72;10374960;28;20096;-67
2023/11/25 08:53:29;;;;;;;1999.90;999.90;;;;;;;11.14;64.84;101063.34;10374400;28;20129;-67
2023/11/25 08:58:31;;;;;;;1999.90;999.90;;;;;;;14.01;59.45;101057.22;10374424;28;20128;-67
2023/11/25 09:03:33;;;;;;;1999.90;999.90;;;;;;;14.95;56.65;101063.91;10374719;28;20481;-68
2023/11/25 09:08:36;;;;;;;1999.90;999.90;;;;;;;13.62;58.61;101066.00;10376087;28;20063;-68
2023/11/25 09:13:38;;;;;;;1999.90;999.90;;;;;;;12.01;63.60;101065.41;10381408;28;20056;-67
2023/11/25 09:18:41;;;;;;;1999.90;999.90;;;;;;;12.96;62.36;101063.13;10382592;28;20097;-67
2023/11/25 09:23:44;;;;;;;1999.90;999.90;;;;;;;11.59;63.65;101071.34;10382000;28;20058;-67
2023/11/25 09:28:46;;;;;;;1999.90;999.90;;;;;;;14.61;56.46;101060.19;10381657;28;20125;-68
2023/11/25 09:33:50;;;;;;;1999.90;999.90;;;;;;;16.32;53.69;101060.81;10381634;28;20050;-68
2023/11/25 09:38:53;;;;;;;1999.90;999.90;;;;;;;14.19;56.70;101065.66;10381535;28;20050;-68
2023/11/25 09:43:55;;;;;;;1999.90;999.90;;;;;;;13.33;60.51;101072.19;10380089;28;20511;-68
2023/11/25 09:48:57;;;;;;;1999.90;999.90;;;;;;;12.44;62.48;101073.34;10380474;28;20125;-67
2023/11/25 09:54:07;;;;;;;1999.90;999.90;;;;;;;12.39;62.35;101071.91;10380047;28;20050;-68
2023/11/25 09:59:11;;;;;;;1999.90;999.90;;;;;;;13.27;60.35;101050.69;10380871;28;20072;-67
2023/11/25 10:04:14;;;;;;;1999.90;999.90;;;;;;;12.64;62.84;101042.34;10380322;28;20592;-67
2023/11/25 10:09:16;;;;;;;1999.90;999.90;;;;;;;11.37;64.65;101043.72;10379435;28;20046;-67
2023/11/25 10:14:19;;;;;;;1999.90;999.90;;;;;;;11.91;64.32;101048.50;10380203;28;20058;-67
2023/11/25 10:19:22;;;;;;;1999.90;999.90;;;;;;;12.45;63.03;101047.91;10379619;28;20512;-67
2023/11/25 10:24:27;;;;;;;1999.90;999.90;;;;;;;12.72;61.63;101037.47;10378468;28;20523;-67
2023/11/25 10:29:32;;;;;;;1999.90;999.90;;;;;;;12.98;62.20;101035.00;10378259;28;20061;-67
2023/11/25 10:34:35;;;;;;;1999.90;999.90;;;;;;;13.67;60.50;101030.53;10379834;28;20407;-67
2023/11/25 10:39:38;;;;;;;1999.90;999.90;;;;;;;13.26;62.33;101028.78;10379574;28;20129;-67
2023/11/25 10:44:40;;;;;;;1999.90;999.90;;;;;;;12.73;62.99;101026.03;10378001;28;20091;-67
2023/11/25 10:49:45;;;;;;;1999.90;999.90;;;;;;;12.73;62.38;101026.03;10361283;28;20050;-67
2023/11/25 10:54:50;;;;;;;1999.90;999.90;;;;;;;12.43;63.02;101031.41;10377596;28;20096;-67
2023/11/25 10:59:57;;;;;;;1999.90;999.90;;;;;;;13.36;61.44;101023.81;10379024;28;20124;-65
2023/11/25 11:05:02;;;;;;;1999.90;999.90;;;;;;;12.80;62.77;101018.63;10377013;28;20396;-65
2023/11/25 11:10:07;;;;;;;1999.90;999.90;;;;;;;13.54;61.27;101019.97;10378371;28;20485;-65
2023/11/25 11:15:15;;;;;;;1999.90;999.90;;;;;;;13.83;61.88;101021.59;10376591;28;20568;-65
2023/11/25 11:20:19;;;;;;;1999.90;999.90;;;;;;;13.73;61.97;101024.88;10377645;28;20050;-65
2023/11/25 11:25:35;;;;;;;1999.90;999.90;;;;;;;13.33;64.53;101019.63;10376578;28;20058;-65
2023/11/25 11:31:00;;;;;;;1999.90;999.90;;;;;;;12.59;66.62;101015.53;10375496;28;20046;-65
2023/11/25 11:36:06;;;;;;;1999.90;999.90;;;;;;;13.89;64.33;101016.75;10395183;22;20052;-71
2023/11/25 11:41:09;;;;;;;1999.90;999.90;;;;;;;13.02;64.47;101010.19;10417670;28;20053;-72
2023/11/25 11:46:11;;;;;;;1999.90;999.90;;;;;;;13.36;63.92;101002.78;10417607;28;20133;-72
2023/11/25 11:51:13;;;;;;;1999.90;999.90;;;;;;;13.45;61.82;100996.06;10383371;28;20378;-72
2023/11/25 11:56:16;;;;;;;1999.90;999.90;;;;;;;13.02;61.67;100990.00;10417249;28;20049;-72
2023/11/25 12:01:18;;;;;;;1999.90;999.90;;;;;;;12.80;62.84;100992.34;10416969;28;20498;-72
2023/11/25 12:06:23;;;;;;;1999.90;999.90;;;;;;;13.72;61.74;100988.13;10399390;28;20053;-72
2023/11/25 12:11:25;;;;;;;1999.90;999.90;;;;;;;13.11;62.09;100985.97;10416667;28;20080;-72
2023/11/25 12:16:28;;;;;;;1999.90;999.90;;;;;;;13.02;62.06;100986.53;10416362;28;20490;-72
2023/11/25 12:21:32;;;;;;;1999.90;999.90;;;;;;;13.41;61.08;100984.91;10398956;28;20050;-72
2023/11/25 12:26:34;;;;;;;1999.90;999.90;;;;;;;13.43;61.50;100980.41;10416013;28;20061;-72
2023/11/25 12:31:36;;;;;;;1999.90;999.90;;;;;;;13.55;60.08;100973.47;10415955;28;20047;-72
2023/11/25 12:36:39;;;;;;;1999.90;999.90;;;;;;;13.38;60.82;100977.22;10415599;28;20140;-72
2023/11/25 12:41:41;;;;;;;1999.90;999.90;;;;;;;13.26;60.97;100963.06;10415727;28;20050;-71
2023/11/25 12:47:01;;;;;;;1999.90;999.90;;;;;;;13.82;60.34;100954.97;10398218;28;20049;-72
2023/11/25 12:52:03;;;;;;;1999.90;999.90;;;;;;;13.10;61.43;100957.16;10398115;28;20053;-71
2023/11/25 12:57:06;;;;;;;1999.90;999.90;;;;;;;13.43;60.27;100969.88;10397710;28;20049;-72
2023/11/25 13:02:11;;;;;;;1999.90;999.90;;;;;;;13.42;61.37;100978.72;10415315;28;20049;-71
2023/11/25 13:07:33;;;;;;;1999.90;999.90;;;;;;;13.11;63.43;100982.47;10415186;28;20045;-72
2023/11/25 13:12:36;;;;;;;1999.90;999.90;;;;;;;13.85;63.48;100973.19;10381195;28;20049;-72
2023/11/25 13:17:40;;;;;;;1999.90;999.90;;;;;;;14.58;61.86;100968.97;10397892;28;20050;-72
2023/11/25 13:22:43;;;;;;;1999.90;999.90;;;;;;;13.75;63.06;100974.75;10397218;28;20076;-72
2023/11/25 13:27:45;;;;;;;1999.90;999.90;;;;;;;13.72;61.89;100974.97;10415199;28;20099;-72
2023/11/25 13:32:48;;;;;;;1999.90;999.90;;;;;;;13.19;62.28;100973.13;10397153;28;20079;-72
2023/11/25 13:37:53;;;;;;;1999.90;999.90;;;;;;;13.60;61.23;100973.16;10396974;28;20069;-72
2023/11/25 13:42:56;;;;;;;1999.90;999.90;;;;;;;13.60;60.77;100970.53;10414230;28;20534;-71
2023/11/25 13:48:04;;;;;;;1999.90;999.90;;;;;;;13.91;59.95;100982.44;10414616;28;20067;-71
2023/11/25 13:53:07;;;;;;;1999.90;999.90;;;;;;;13.93;62.01;100981.38;10397480;28;20125;-72
2023/11/25 13:58:10;;;;;;;1999.90;999.90;;;;;;;13.03;64.98;100996.13;10421521;28;20473;-72
2023/11/25 14:03:13;;;;;;;1999.90;999.90;;;;;;;12.77;66.94;100995.16;10404154;28;20048;-72
2023/11/25 14:08:19;;;;;;;1999.90;999.90;;;;;;;12.86;66.57;100989.31;10404092;28;20447;-72
2023/11/25 14:13:22;;;;;;;1999.90;999.90;;;;;;;12.12;68.26;100995.66;10404353;28;20055;-72
2023/11/25 14:18:24;;;;;;;1999.90;999.90;;;;;;;13.00;64.96;100996.31;10421128;28;20556;-72
2023/11/25 14:23:26;;;;;;;1999.90;999.90;;;;;;;12.75;65.93;101002.28;10421037;28;20048;-72
2023/11/25 14:28:29;;;;;;;1999.90;999.90;;;;;;;12.78;64.69;101004.72;10403232;28;20045;-72
2023/11/25 14:33:31;;;;;;;1999.90;999.90;;;;;;;12.79;65.34;101015.16;10420285;28;20071;-72
2023/11/25 14:38:35;;;;;;;1999.90;999.90;;;;;;;11.90;68.62;101023.16;10402682;28;20417;-71
2023/11/25 14:43:38;;;;;;;1999.90;999.90;;;;;;;12.88;65.12;101015.47;10420198;28;20405;-71
2023/11/25 14:48:40;;;;;;;1999.90;999.90;;;;;;;12.15;65.85;101006.81;10420084;28;20128;-72
2023/11/25 14:53:43;;;;;;;1999.90;999.90;;;;;;;12.02;66.21;101027.72;10402125;28;20057;-71
2023/11/25 14:58:45;;;;;;;1999.90;999.90;;;;;;;12.09;65.83;101036.09;10401901;28;20049;-71
2023/11/25 15:03:48;;;;;;;1999.90;999.90;;;;;;;13.10;63.14;101034.22;10418967;28;20473;-72
2023/11/25 15:08:50;;;;;;;1999.90;999.90;;;;;;;12.45;64.81;101033.00;10418333;28;20132;-72
2023/11/25 15:13:54;;;;;;;1999.90;999.90;;;;;;;12.03;65.65;101037.28;10419264;28;20407;-72
2023/11/25 15:18:56;;;;;;;1999.90;999.90;;;;;;;11.89;67.29;101037.25;10401058;28;20508;-72
2023/11/25 15:23:59;;;;;;;1999.90;999.90;;;;;;;12.45;65.82;101032.16;10418520;28;20053;-72
2023/11/25 15:29:01;;;;;;;1999.90;999.90;;;;;;;12.14;66.55;101043.66;10418148;28;20132;-72
2023/11/25 15:34:04;;;;;;;1999.90;999.90;;;;;;;12.22;65.49;101039.66;10418175;28;20068;-72
2023/11/25 15:39:16;;;;;;;1999.90;999.90;;;;;;;12.96;64.33;101042.97;10400424;28;20085;-72
2023/11/25 15:44:19;;;;;;;1999.90;999.90;;;;;;;12.22;66.08;101050.16;10400708;28;20555;-72
2023/11/25 15:49:21;;;;;;;1999.90;999.90;;;;;;;12.15;66.72;101056.69;10417388;28;20053;-72
2023/11/25 15:54:23;;;;;;;1999.90;999.90;;;;;;;12.37;65.62;101056.28;10417313;28;20053;-72
2023/11/25 15:59:29;;;;;;;1999.90;999.90;;;;;;;12.73;65.63;101067.22;10417377;28;20041;-72
2023/11/25 16:04:31;;;;;;;1999.90;999.90;;;;;;;12.87;63.73;101058.47;10416729;28;20068;-72
2023/11/25 16:09:35;;;;;;;1999.90;999.90;;;;;;;12.22;67.00;101065.03;10398932;28;20076;-72
2023/11/25 16:14:38;;;;;;;1999.90;999.90;;;;;;;12.74;64.94;101066.28;10416610;28;20046;-72
2023/11/25 16:19:40;;;;;;;1999.90;999.90;;;;;;;11.87;67.04;101081.94;10382165;28;20405;-72
2023/11/25 16:24:43;;;;;;;1999.90;999.90;;;;;;;12.59;64.32;101083.81;10398783;28;20141;-72
2023/11/25 16:29:46;;;;;;;1999.90;999.90;;;;;;;12.85;64.35;101094.53;10415788;28;20046;-72
2023/11/25 16:34:48;;;;;;;1999.90;999.90;;;;;;;12.63;65.35;101095.84;10398218;28;20053;-72
2023/11/25 16:39:51;;;;;;;1999.90;999.90;;;;;;;12.75;64.62;101102.97;10398118;28;20099;-72
2023/11/25 16:44:53;;;;;;;1999.90;999.90;;;;;;;12.58;67.26;101101.38;10415384;28;20050;-73
2023/11/25 16:49:56;;;;;;;1999.90;999.90;;;;;;;11.62;70.10;101105.25;10415392;28;20057;-72
2023/11/25 16:54:58;;;;;;;1999.90;999.90;;;;;;;12.70;67.02;101135.72;10397552;28;20055;-72
2023/11/25 17:00:01;;;;;;;1999.90;999.90;;;;;;;13.02;65.17;101147.72;10397834;28;20047;-73
2023/11/25 17:05:04;;;;;;;1999.90;999.90;;;;;;;12.77;66.73;101152.78;10397629;28;20045;-74
2023/11/25 17:10:07;;;;;;;1999.90;999.90;;;;;;;12.22;68.18;101149.06;10414770;28;20054;-74
2023/11/25 17:15:09;;;;;;;1999.90;999.90;;;;;;;12.72;66.77;101146.97;10397477;28;20053;-74
2023/11/25 17:20:12;;;;;;;1999.90;999.90;;;;;;;12.64;65.62;101152.69;10414526;28;20488;-74
2023/11/25 17:25:14;;;;;;;1999.90;999.90;;;;;;;12.63;67.20;101164.97;10381082;28;20045;-73
2023/11/25 17:30:17;;;;;;;1999.90;999.90;;;;;;;12.30;68.13;101173.06;10417649;28;20404;-73
2023/11/25 17:35:19;;;;;;;1999.90;999.90;;;;;;;11.76;70.26;101170.88;10422934;28;20056;-73
2023/11/25 17:40:22;;;;;;;1999.90;999.90;;;;;;;12.25;69.33;101170.75;10422378;28;20081;-73
2023/11/25 17:45:24;;;;;;;1999.90;999.90;;;;;;;12.47;67.81;101184.38;10404756;28;20059;-73
2023/11/25 17:50:27;;;;;;;1999.90;999.90;;;;;;;11.42;69.40;101179.78;10422057;28;20050;-73
2023/11/25 17:55:29;;;;;;;1999.90;999.90;;;;;;;12.12;67.93;101195.16;10421995;28;20049;-73
2023/11/25 18:00:32;;;;;;;1999.90;999.90;;;;;;;12.01;66.93;101195.78;10421665;28;20420;-73
2023/11/25 18:05:36;;;;;;;1999.90;999.90;;;;;;;12.11;67.10;101207.44;10421621;28;20103;-73
2023/11/25 18:10:40;;;;;;;1999.90;999.90;;;;;;;11.99;67.35;101202.91;10421185;28;20056;-73
2023/11/25 18:15:43;;;;;;;1999.90;999.90;;;;;;;11.69;66.99;101216.75;10421106;28;20485;-73
2023/11/25 18:20:45;;;;;;;1999.90;999.90;;;;;;;11.71;66.80;101215.72;10420856;28;20051;-73
2023/11/25 18:25:48;;;;;;;1999.90;999.90;;;;;;;12.47;64.47;101224.59;10420673;28;20507;-73
2023/11/25 18:30:50;;;;;;;1999.90;999.90;;;;;;;11.69;66.02;101216.75;10403053;28;20049;-73
2023/11/25 18:35:53;;;;;;;1999.90;999.90;;;;;;;11.70;66.24;101224.53;10402691;28;20103;-73
2023/11/25 18:40:55;;;;;;;1999.90;999.90;;;;;;;11.46;66.25;101225.88;10419779;28;20045;-73
2023/11/25 18:45:57;;;;;;;1999.90;999.90;;;;;;;11.41;66.34;101236.59;10402406;28;20128;-73
2023/11/25 18:51:04;;;;;;;1999.90;999.90;;;;;;;11.21;69.09;101242.06;10402065;28;20428;-72
2023/11/25 18:56:06;;;;;;;1999.90;999.90;;;;;;;11.52;67.49;101242.13;10402027;28;20409;-72
2023/11/25 19:01:09;;;;;;;1999.90;999.90;;;;;;;10.95;68.68;101250.38;10402115;28;20085;-72
2023/11/25 19:06:12;;;;;;;1999.90;999.90;;;;;;;11.88;66.10;101246.31;10401685;28;20415;-72
2023/11/25 19:11:14;;;;;;;1999.90;999.90;;;;;;;11.80;66.95;101247.63;10418958;28;20049;-72
2023/11/25 19:16:17;;;;;;;1999.90;999.90;;;;;;;11.61;68.17;101246.00;10401362;28;20439;-73
2023/11/25 19:21:19;;;;;;;1999.90;999.90;;;;;;;11.75;66.42;101255.78;10401114;28;20045;-73
2023/11/25 19:26:21;;;;;;;1999.90;999.90;;;;;;;11.83;66.75;101255.34;10401109;28;20128;-73
2023/11/25 19:31:24;;;;;;;1999.90;999.90;;;;;;;11.58;67.53;101264.53;10400720;28;20049;-72
2023/11/25 19:36:26;;;;;;;1999.90;999.90;;;;;;;11.70;66.67;101265.66;10418108;28;20049;-72
2023/11/25 19:41:29;;;;;;;1999.90;999.90;;;;;;;11.52;66.29;101273.59;10400136;28;20060;-73
2023/11/25 19:46:32;;;;;;;1999.90;999.90;;;;;;;11.60;65.06;101283.69;10417477;28;20485;-72
2023/11/25 19:51:34;;;;;;;1999.90;999.90;;;;;;;12.11;64.51;101280.94;10399535;28;20046;-72
2023/11/25 19:56:37;;;;;;;1999.90;999.90;;;;;;;11.34;66.30;101295.53;10417221;28;20060;-72
2023/11/25 20:01:40;;;;;;;1999.90;999.90;;;;;;;11.34;66.52;101306.03;10417037;28;20515;-73
2023/11/25 20:06:43;;;;;;;1999.90;999.90;;;;;;;11.46;66.35;101307.16;10416930;28;20061;-72
2023/11/25 20:11:46;;;;;;;1999.90;999.90;;;;;;;11.04;68.54;101311.09;10399020;28;20045;-72
2023/11/25 20:16:48;;;;;;;1999.90;999.90;;;;;;;12.02;66.42;101305.91;10416712;28;20052;-73
2023/11/25 20:21:51;;;;;;;1999.90;999.90;;;;;;;12.04;64.60;101306.66;10416259;28;20052;-72
2023/11/25 20:26:53;;;;;;;1999.90;999.90;;;;;;;12.30;63.70;101301.72;10416248;28;20060;-72
2023/11/25 20:31:56;;;;;;;1999.90;999.90;;;;;;;12.21;63.64;101312.75;10415856;28;20395;-72
2023/11/25 20:36:59;;;;;;;1999.90;999.90;;;;;;;12.36;62.58;101319.75;10398490;28;20085;-73
2023/11/25 20:42:02;;;;;;;1999.90;999.90;;;;;;;12.14;62.19;101327.13;10415845;28;20050;-73
2023/11/25 20:47:04;;;;;;;1999.90;999.90;;;;;;;11.76;63.94;101330.91;10398012;28;20053;-72
2023/11/25 20:52:07;;;;;;;1999.90;999.90;;;;;;;12.07;63.20;101324.03;10415492;28;20141;-72
2023/11/25 20:57:14;;;;;;;1999.90;999.90;;;;;;;11.89;63.18;101328.47;10415212;28;20460;-72
2023/11/25 21:02:16;;;;;;;1999.90;999.90;;;;;;;12.52;61.39;101330.22;10397877;28;20049;-72
2023/11/25 21:07:19;;;;;;;1999.90;999.90;;;;;;;11.91;63.49;101347.63;10413989;28;20128;-72
2023/11/25 21:12:21;;;;;;;1999.90;999.90;;;;;;;12.43;62.50;101352.63;10414857;28;20129;-72
2023/11/25 21:17:24;;;;;;;1999.90;999.90;;;;;;;12.06;63.98;101359.06;10397569;28;20156;-72
2023/11/25 21:22:28;;;;;;;1999.90;999.90;;;;;;;12.14;63.83;101348.13;10414700;28;20072;-72
2023/11/25 21:27:34;;;;;;;1999.90;999.90;;;;;;;11.81;63.89;101367.38;10397194;28;20096;-73
2023/11/25 21:32:36;;;;;;;1999.90;999.90;;;;;;;11.57;65.04;101366.94;10414198;28;20481;-73
2023/11/25 21:37:42;;;;;;;1999.90;999.90;;;;;;;12.29;63.43;101367.44;10414506;28;20065;-72
2023/11/25 21:42:45;;;;;;;1999.90;999.90;;;;;;;11.78;64.26;101363.13;10396946;28;20485;-73
2023/11/25 21:47:47;;;;;;;1999.90;999.90;;;;;;;11.73;65.43;101356.47;10414272;28;20056;-73
2023/11/25 21:52:50;;;;;;;1999.90;999.90;;;;;;;12.18;63.80;101349.69;10414297;28;20112;-72
2023/11/25 21:57:53;;;;;;;1999.90;999.90;;;;;;;12.33;62.53;101353.22;10396672;28;20057;-72
2023/11/25 22:02:55;;;;;;;1999.90;999.90;;;;;;;11.47;64.74;101356.91;10414418;28;20125;-72